createdAt,value
2023-02-03T00:00:41.096Z,17.50
2023-02-03T00:01:41.138Z,17.00
2023-02-03T00:02:41.116Z,16.20
2023-02-03T00:03:41.184Z,16.90
2023-02-03T00:04:41.043Z,15.50
2023-02-03T00:05:41.029Z,16.40
2023-02-03T00:06:41.644Z,16.70
2023-02-03T00:07:41.022Z,16.10
2023-02-03T00:08:42.043Z,15.50
2023-02-03T00:09:41.018Z,16.90
2023-02-03T00:10:40.981Z,16.50
2023-02-03T00:11:41.643Z,16.30
2023-02-03T00:12:40.956Z,15.20
2023-02-03T00:13:40.968Z,16.20
2023-02-03T00:14:40.961Z,16.10
2023-02-03T00:15:40.927Z,15.90
2023-02-03T00:16:40.984Z,15.20
2023-02-03T00:17:40.901Z,15.40
2023-02-03T00:18:40.923Z,15.90
2023-02-03T00:19:41.177Z,15.60
2023-02-03T00:20:40.881Z,15.60
2023-02-03T00:21:40.862Z,15.60
2023-02-03T00:22:41.654Z,15.40
2023-02-03T00:23:40.865Z,15.80
2023-02-03T00:24:40.831Z,15.00
2023-02-03T00:25:40.804Z,15.70
2023-02-03T00:26:40.808Z,15.50
2023-02-03T00:27:40.841Z,15.20
2023-02-03T00:28:40.833Z,14.90
2023-02-03T00:29:40.788Z,14.80
2023-02-03T00:30:40.762Z,15.20
2023-02-03T00:31:40.822Z,15.30
2023-02-03T00:32:40.831Z,16.40
2023-02-03T00:33:40.746Z,15.50
2023-02-03T00:34:40.722Z,15.90
2023-02-03T00:35:40.751Z,15.90
2023-02-03T00:36:42.876Z,16.20
2023-02-03T00:37:40.685Z,14.60
2023-02-03T00:38:40.738Z,14.40
2023-02-03T00:39:40.664Z,15.30
2023-02-03T00:40:40.653Z,16.00
2023-02-03T00:41:40.663Z,15.20
2023-02-03T00:42:40.629Z,15.20
2023-02-03T00:43:40.612Z,14.90
2023-02-03T00:44:40.603Z,15.30
2023-02-03T00:45:40.644Z,14.10
2023-02-03T00:46:40.576Z,13.80
2023-02-03T00:47:40.601Z,14.00
2023-02-03T00:48:40.585Z,14.00
2023-02-03T00:49:40.558Z,14.00
2023-02-03T00:50:40.532Z,13.10
2023-02-03T00:51:40.553Z,13.50
2023-02-03T00:52:40.512Z,14.00
2023-02-03T00:53:40.532Z,13.90
2023-02-03T00:54:40.512Z,13.90
2023-02-03T00:55:40.503Z,14.00
2023-02-03T00:56:40.473Z,13.60
2023-02-03T00:57:40.461Z,14.00
2023-02-03T00:58:40.474Z,13.50
2023-02-03T00:59:40.458Z,13.70
2023-02-03T01:00:40.536Z,14.30
2023-02-03T01:01:40.416Z,14.30
2023-02-03T01:02:41.574Z,14.00
2023-02-03T01:03:40.397Z,13.60
2023-02-03T01:04:40.409Z,13.40
2023-02-03T01:05:40.367Z,13.30
2023-02-03T01:06:40.365Z,13.60
2023-02-03T01:07:41.148Z,13.80
2023-02-03T01:08:40.352Z,13.20
2023-02-03T01:09:40.348Z,13.60
2023-02-03T01:10:40.314Z,13.00
2023-02-03T01:11:40.325Z,13.70
2023-02-03T01:12:40.312Z,13.30
2023-02-03T01:13:40.308Z,13.60
2023-02-03T01:14:40.280Z,13.00
2023-02-03T01:15:40.271Z,12.80
2023-02-03T01:16:41.313Z,13.00
2023-02-03T01:17:40.243Z,12.40
2023-02-03T01:18:40.694Z,13.00
2023-02-03T01:19:40.240Z,13.20
2023-02-03T01:20:40.226Z,13.40
2023-02-03T01:21:40.205Z,12.80
2023-02-03T01:22:40.204Z,12.90
2023-02-03T01:23:40.201Z,13.30
2023-02-03T01:24:41.164Z,12.60
2023-02-03T01:25:40.151Z,13.00
2023-02-03T01:26:40.152Z,12.10
2023-02-03T01:27:40.204Z,12.10
2023-02-03T01:28:40.141Z,12.60
2023-02-03T01:29:40.151Z,12.40
2023-02-03T01:30:40.231Z,12.30
2023-02-03T01:31:41.019Z,12.40
2023-02-03T01:32:40.087Z,11.90
2023-02-03T01:33:40.072Z,11.90
2023-02-03T01:34:40.090Z,12.00
2023-02-03T01:35:40.066Z,12.40
2023-02-03T01:36:40.072Z,12.00
2023-02-03T01:37:40.034Z,11.70
2023-02-03T01:38:40.010Z,12.00
2023-02-03T01:39:40.049Z,11.80
2023-02-03T01:40:40.004Z,11.70
2023-02-03T01:41:40.035Z,10.80
2023-02-03T01:42:39.961Z,10.90
2023-02-03T01:43:39.993Z,10.80
2023-02-03T01:44:39.967Z,11.30
2023-02-03T01:45:39.997Z,11.10
2023-02-03T01:46:39.947Z,11.30
2023-02-03T01:47:39.922Z,11.00
2023-02-03T01:48:40.640Z,10.90
2023-02-03T01:49:39.900Z,11.60
2023-02-03T01:50:39.888Z,10.30
2023-02-03T01:51:39.892Z,11.00
2023-02-03T01:52:39.958Z,10.60
2023-02-03T01:53:39.849Z,10.60
2023-02-03T01:54:39.850Z,11.00
2023-02-03T01:55:39.851Z,11.10
2023-02-03T01:56:39.860Z,10.70
2023-02-03T01:57:39.813Z,10.50
2023-02-03T01:58:39.821Z,11.10
2023-02-03T01:59:39.828Z,10.70
2023-02-03T02:00:39.772Z,11.20
2023-02-03T02:01:39.823Z,11.10
2023-02-03T02:02:41.790Z,10.70
2023-02-03T02:03:39.770Z,11.40
2023-02-03T02:04:40.656Z,10.20
2023-02-03T02:05:39.727Z,11.60
2023-02-03T02:06:39.715Z,10.40
2023-02-03T02:07:40.274Z,10.60
2023-02-03T02:08:39.710Z,10.30
2023-02-03T02:09:39.676Z,10.30
2023-02-03T02:10:39.689Z,10.30
2023-02-03T02:11:39.652Z,10.10
2023-02-03T02:12:40.166Z,9.70
2023-02-03T02:13:39.633Z,9.80
2023-02-03T02:14:39.658Z,10.10
2023-02-03T02:15:39.690Z,9.90
2023-02-03T02:16:39.599Z,10.40
2023-02-03T02:17:39.622Z,10.50
2023-02-03T02:18:39.590Z,9.90
2023-02-03T02:19:39.574Z,9.50
2023-02-03T02:20:39.586Z,10.40
2023-02-03T02:21:39.560Z,10.50
2023-02-03T02:22:39.534Z,9.80
2023-02-03T02:23:39.634Z,9.90
2023-02-03T02:24:39.557Z,9.60
2023-02-03T02:25:39.512Z,10.00
2023-02-03T02:26:39.505Z,9.70
2023-02-03T02:27:39.524Z,9.70
2023-02-03T02:28:39.535Z,9.20
2023-02-03T02:29:39.454Z,9.40
2023-02-03T02:30:39.555Z,9.50
2023-02-03T02:31:39.652Z,9.30
2023-02-03T02:32:39.675Z,9.50
2023-02-03T02:33:39.517Z,9.40
2023-02-03T02:34:39.408Z,10.00
2023-02-03T02:35:39.390Z,9.50
2023-02-03T02:36:39.379Z,9.70
2023-02-03T02:37:39.464Z,9.30
2023-02-03T02:38:39.383Z,9.80
2023-02-03T02:39:39.460Z,9.00
2023-02-03T02:40:39.339Z,9.60
2023-02-03T02:41:39.341Z,9.30
2023-02-03T02:42:39.329Z,9.90
2023-02-03T02:43:39.323Z,9.50
2023-02-03T02:44:39.311Z,9.40
2023-02-03T02:45:39.294Z,9.20
2023-02-03T02:46:39.391Z,9.70
2023-02-03T02:47:39.299Z,9.20
2023-02-03T02:48:39.266Z,9.50
2023-02-03T02:49:39.259Z,9.10
2023-02-03T02:50:39.341Z,9.50
2023-02-03T02:51:39.226Z,9.40
2023-02-03T02:52:39.207Z,9.10
2023-02-03T02:53:39.194Z,8.30
2023-02-03T02:54:39.225Z,8.30
2023-02-03T02:55:39.159Z,8.60
2023-02-03T02:56:39.165Z,9.50
2023-02-03T02:57:39.159Z,8.60
2023-02-03T02:58:39.147Z,8.70
2023-02-03T02:59:39.128Z,8.50
2023-02-03T03:00:39.152Z,8.70
2023-02-03T03:01:39.135Z,9.00
2023-02-03T03:02:39.654Z,8.60
2023-02-03T03:03:39.108Z,9.00
2023-02-03T03:04:39.164Z,8.70
2023-02-03T03:05:39.084Z,8.60
2023-02-03T03:06:39.090Z,9.40
2023-02-03T03:07:39.654Z,8.40
2023-02-03T03:08:39.022Z,8.40
2023-02-03T03:09:39.027Z,8.30
2023-02-03T03:10:39.019Z,8.40
2023-02-03T03:11:39.014Z,8.20
2023-02-03T03:12:38.991Z,8.10
2023-02-03T03:13:38.977Z,8.40
2023-02-03T03:14:38.984Z,7.50
2023-02-03T03:15:38.981Z,8.40
2023-02-03T03:16:38.952Z,8.30
2023-02-03T03:17:38.954Z,7.80
2023-02-03T03:18:38.942Z,8.50
2023-02-03T03:19:38.935Z,8.40
2023-02-03T03:20:38.892Z,8.40
2023-02-03T03:21:38.908Z,8.30
2023-02-03T03:22:38.892Z,9.10
2023-02-03T03:23:38.889Z,8.20
2023-02-03T03:24:38.857Z,7.70
2023-02-03T03:25:38.848Z,7.90
2023-02-03T03:26:38.862Z,8.00
2023-02-03T03:27:38.851Z,8.10
2023-02-03T03:28:38.824Z,8.20
2023-02-03T03:29:38.799Z,8.30
2023-02-03T03:30:38.861Z,8.80
2023-02-03T03:31:38.929Z,8.20
2023-02-03T03:32:38.792Z,8.30
2023-02-03T03:33:38.774Z,7.90
2023-02-03T03:34:38.765Z,8.30
2023-02-03T03:35:38.747Z,8.00
2023-02-03T03:36:41.658Z,8.40
2023-02-03T03:37:38.713Z,7.60
2023-02-03T03:38:38.732Z,7.80
2023-02-03T03:39:38.709Z,7.60
2023-02-03T03:40:38.793Z,7.80
2023-02-03T03:41:38.686Z,8.10
2023-02-03T03:42:38.664Z,7.50
2023-02-03T03:43:38.657Z,7.20
2023-02-03T03:44:38.659Z,7.20
2023-02-03T03:45:38.631Z,7.50
2023-02-03T03:46:38.643Z,7.70
2023-02-03T03:47:38.617Z,7.80
2023-02-03T03:48:38.597Z,6.80
2023-02-03T03:49:38.583Z,7.10
2023-02-03T03:50:41.153Z,7.40
2023-02-03T03:51:38.588Z,7.60
2023-02-03T03:52:38.547Z,7.30
2023-02-03T03:53:38.593Z,7.90
2023-02-03T03:54:38.558Z,6.90
2023-02-03T03:55:38.534Z,8.20
2023-02-03T03:56:38.513Z,7.50
2023-02-03T03:57:38.489Z,7.00
2023-02-03T03:58:59.493Z,7.40
2023-02-03T03:59:38.499Z,7.00
2023-02-03T04:00:38.467Z,7.60
2023-02-03T04:01:38.688Z,7.80
2023-02-03T04:02:38.567Z,7.50
2023-02-03T04:03:39.153Z,7.00
2023-02-03T04:04:38.723Z,7.20
2023-02-03T04:05:38.437Z,7.50
2023-02-03T04:06:38.402Z,7.10
2023-02-03T04:07:38.411Z,6.70
2023-02-03T04:08:39.145Z,6.80
2023-02-03T04:09:38.356Z,7.30
2023-02-03T04:10:38.362Z,7.10
2023-02-03T04:11:39.647Z,6.80
2023-02-03T04:12:38.342Z,6.70
2023-02-03T04:13:38.336Z,7.00
2023-02-03T04:14:38.314Z,6.50
2023-02-03T04:15:38.329Z,6.60
2023-02-03T04:16:38.303Z,7.20
2023-02-03T04:17:38.285Z,6.10
2023-02-03T04:18:38.364Z,6.20
2023-02-03T04:19:38.269Z,6.30
2023-02-03T04:20:38.242Z,6.40
2023-02-03T04:21:38.260Z,6.50
2023-02-03T04:22:38.225Z,6.60
2023-02-03T04:23:38.372Z,6.10
2023-02-03T04:24:38.195Z,5.90
2023-02-03T04:25:38.213Z,6.30
2023-02-03T04:26:38.195Z,6.00
2023-02-03T04:27:38.281Z,5.80
2023-02-03T04:28:38.166Z,6.20
2023-02-03T04:29:38.147Z,6.50
2023-02-03T04:30:40.737Z,6.70
2023-02-03T04:31:40.729Z,6.10
2023-02-03T04:32:38.169Z,6.10
2023-02-03T04:33:38.228Z,5.80
2023-02-03T04:34:38.096Z,6.30
2023-02-03T04:35:38.087Z,6.20
2023-02-03T04:36:38.076Z,5.70
2023-02-03T04:37:38.079Z,6.20
2023-02-03T04:38:38.162Z,6.20
2023-02-03T04:39:38.098Z,6.10
2023-02-03T04:40:38.029Z,6.10
2023-02-03T04:41:38.016Z,6.10
2023-02-03T04:42:37.998Z,6.40
2023-02-03T04:43:37.997Z,6.20
2023-02-03T04:44:38.005Z,6.00
2023-02-03T04:45:38.009Z,5.70
2023-02-03T04:46:37.975Z,6.20
2023-02-03T04:47:37.958Z,6.10
2023-02-03T04:48:37.949Z,5.60
2023-02-03T04:49:37.964Z,6.10
2023-02-03T04:50:37.925Z,5.90
2023-02-03T04:51:38.659Z,6.20
2023-02-03T04:52:37.941Z,5.10
2023-02-03T04:53:38.670Z,5.70
2023-02-03T04:54:37.876Z,5.50
2023-02-03T04:55:37.901Z,5.80
2023-02-03T04:56:37.873Z,5.40
2023-02-03T04:57:40.653Z,5.40
2023-02-03T04:58:37.836Z,5.40
2023-02-03T04:59:37.820Z,5.00
2023-02-03T05:00:37.846Z,5.80
2023-02-03T05:01:37.791Z,5.20
2023-02-03T05:02:37.802Z,5.70
2023-02-03T05:03:38.923Z,5.40
2023-02-03T05:04:37.874Z,5.10
2023-02-03T05:05:37.764Z,5.60
2023-02-03T05:06:37.759Z,5.50
2023-02-03T05:07:38.804Z,5.10
2023-02-03T05:08:37.725Z,5.10
2023-02-03T05:09:37.720Z,5.20
2023-02-03T05:10:37.693Z,5.00
2023-02-03T05:11:37.728Z,4.70
2023-02-03T05:12:37.668Z,5.20
2023-02-03T05:13:37.670Z,4.50
2023-02-03T05:14:37.651Z,4.90
2023-02-03T05:15:37.764Z,4.60
2023-02-03T05:16:37.664Z,5.30
2023-02-03T05:17:37.620Z,4.70
2023-02-03T05:18:37.618Z,5.20
2023-02-03T05:19:37.606Z,4.90
2023-02-03T05:20:37.605Z,4.60
2023-02-03T05:21:37.584Z,4.90
2023-02-03T05:22:37.607Z,4.10
2023-02-03T05:23:37.576Z,3.90
2023-02-03T05:24:37.555Z,4.30
2023-02-03T05:25:37.641Z,4.20
2023-02-03T05:26:37.535Z,4.30
2023-02-03T05:27:37.626Z,4.50
2023-02-03T05:28:37.504Z,4.30
2023-02-03T05:29:37.504Z,4.60
2023-02-03T05:30:37.527Z,4.80
2023-02-03T05:31:37.644Z,3.90
2023-02-03T05:32:37.488Z,4.00
2023-02-03T05:33:37.461Z,3.70
2023-02-03T05:34:37.463Z,3.70
2023-02-03T05:35:37.436Z,3.70
2023-02-03T05:36:37.431Z,3.40
2023-02-03T05:37:37.407Z,3.70
2023-02-03T05:38:37.416Z,3.70
2023-02-03T05:39:37.395Z,3.50
2023-02-03T05:40:37.396Z,3.40
2023-02-03T05:41:37.373Z,4.10
2023-02-03T05:42:37.355Z,3.00
2023-02-03T05:43:37.372Z,3.20
2023-02-03T05:44:37.334Z,3.10
2023-02-03T05:45:37.447Z,3.10
2023-02-03T05:46:37.329Z,2.80
2023-02-03T05:47:37.304Z,3.20
2023-02-03T05:48:37.284Z,3.20
2023-02-03T05:49:37.298Z,3.10
2023-02-03T05:50:38.669Z,2.70
2023-02-03T05:51:37.256Z,3.00
2023-02-03T05:52:38.278Z,3.30
2023-02-03T05:53:37.220Z,3.20
2023-02-03T05:54:37.235Z,2.60
2023-02-03T05:55:37.215Z,3.00
2023-02-03T05:56:37.198Z,3.50
2023-02-03T05:57:37.180Z,3.20
2023-02-03T05:58:37.168Z,2.70
2023-02-03T05:59:37.209Z,2.90
2023-02-03T06:00:37.151Z,3.10
2023-02-03T06:01:37.147Z,3.30
2023-02-03T06:02:37.128Z,3.00
2023-02-03T06:03:37.212Z,2.60
2023-02-03T06:04:37.200Z,3.20
2023-02-03T06:05:37.141Z,2.90
2023-02-03T06:06:37.097Z,3.10
2023-02-03T06:07:37.167Z,3.00
2023-02-03T06:08:37.089Z,3.40
2023-02-03T06:09:37.054Z,2.70
2023-02-03T06:10:37.045Z,2.70
2023-02-03T06:11:37.118Z,2.70
2023-02-03T06:12:37.042Z,3.40
2023-02-03T06:13:37.002Z,2.90
2023-02-03T06:14:37.019Z,3.50
2023-02-03T06:15:37.001Z,2.60
2023-02-03T06:16:37.163Z,2.90
2023-02-03T06:17:36.995Z,2.50
2023-02-03T06:18:36.950Z,2.80
2023-02-03T06:19:36.954Z,2.90
2023-02-03T06:20:36.936Z,2.90
2023-02-03T06:21:36.955Z,2.80
2023-02-03T06:22:36.932Z,3.10
2023-02-03T06:23:36.911Z,2.60
2023-02-03T06:24:36.893Z,2.50
2023-02-03T06:25:36.905Z,2.60
2023-02-03T06:26:36.862Z,2.60
2023-02-03T06:27:36.886Z,2.60
2023-02-03T06:28:36.842Z,2.50
2023-02-03T06:29:36.844Z,2.60
2023-02-03T06:30:36.863Z,2.80
2023-02-03T06:31:36.988Z,2.30
2023-02-03T06:32:36.816Z,2.50
2023-02-03T06:33:36.827Z,2.60
2023-02-03T06:34:36.781Z,2.50
2023-02-03T06:35:36.783Z,2.30
2023-02-03T06:36:36.763Z,2.60
2023-02-03T06:37:36.767Z,2.50
2023-02-03T06:38:36.760Z,2.40
2023-02-03T06:39:36.734Z,2.60
2023-02-03T06:40:36.718Z,2.20
2023-02-03T06:41:36.707Z,2.30
2023-02-03T06:42:36.695Z,2.10
2023-02-03T06:43:36.695Z,2.10
2023-02-03T06:44:36.676Z,2.20
2023-02-03T06:45:36.663Z,2.60
2023-02-03T06:46:36.723Z,2.00
2023-02-03T06:47:36.653Z,2.00
2023-02-03T06:48:36.635Z,2.20
2023-02-03T06:49:36.649Z,2.40
2023-02-03T06:50:36.604Z,2.10
2023-02-03T06:51:36.608Z,2.70
2023-02-03T06:52:36.586Z,2.40
2023-02-03T06:53:36.566Z,2.30
2023-02-03T06:54:36.582Z,2.00
2023-02-03T06:55:36.550Z,2.50
2023-02-03T06:56:36.563Z,2.10
2023-02-03T06:57:36.532Z,2.20
2023-02-03T06:58:36.520Z,2.10
2023-02-03T06:59:36.517Z,2.00
2023-02-03T07:00:36.512Z,2.30
2023-02-03T07:01:36.613Z,2.10
2023-02-03T07:02:36.549Z,2.40
2023-02-03T07:03:36.476Z,2.00
2023-02-03T07:04:36.452Z,2.50
2023-02-03T07:05:36.458Z,2.20
2023-02-03T07:06:36.446Z,2.20
2023-02-03T07:07:36.414Z,2.20
2023-02-03T07:08:37.167Z,2.70
2023-02-03T07:09:37.406Z,2.10
2023-02-03T07:10:36.401Z,2.60
2023-02-03T07:11:36.391Z,2.10
2023-02-03T07:12:36.396Z,1.90
2023-02-03T07:13:36.353Z,2.10
2023-02-03T07:14:36.360Z,2.00
2023-02-03T07:15:36.405Z,2.30
2023-02-03T07:16:36.320Z,2.40
2023-02-03T07:17:36.346Z,2.10
2023-02-03T07:18:46.871Z,1.90
2023-02-03T07:19:37.298Z,2.30
2023-02-03T07:20:36.271Z,2.10
2023-02-03T07:21:36.287Z,2.40
2023-02-03T07:22:36.252Z,2.20
2023-02-03T07:23:36.267Z,2.30
2023-02-03T07:24:36.239Z,2.20
2023-02-03T07:25:36.227Z,2.20
2023-02-03T07:26:36.225Z,2.20
2023-02-03T07:27:36.342Z,2.60
2023-02-03T07:28:36.205Z,2.50
2023-02-03T07:29:36.199Z,2.60
2023-02-03T07:30:36.158Z,2.10
2023-02-03T07:31:36.303Z,2.80
2023-02-03T07:32:38.665Z,2.50
2023-02-03T07:33:36.145Z,2.80
2023-02-03T07:34:36.123Z,2.10
2023-02-03T07:35:36.154Z,2.10
2023-02-03T07:36:36.103Z,2.50
2023-02-03T07:37:36.114Z,2.00
2023-02-03T07:38:36.102Z,2.20
2023-02-03T07:39:36.680Z,2.40
2023-02-03T07:40:36.067Z,2.30
2023-02-03T07:41:36.081Z,2.90
2023-02-03T07:42:36.060Z,2.90
2023-02-03T07:43:36.048Z,2.50
2023-02-03T07:44:36.027Z,2.70
2023-02-03T07:45:36.005Z,2.70
2023-02-03T07:46:36.073Z,2.70
2023-02-03T07:47:35.983Z,2.50
2023-02-03T07:48:35.997Z,2.90
2023-02-03T07:49:35.961Z,2.80
2023-02-03T07:50:35.982Z,2.70
2023-02-03T07:51:35.948Z,2.60
2023-02-03T07:52:35.948Z,3.10
2023-02-03T07:53:35.902Z,2.60
2023-02-03T07:54:35.913Z,2.70
2023-02-03T07:55:35.890Z,2.50
2023-02-03T07:56:35.911Z,2.70
2023-02-03T07:57:35.871Z,2.80
2023-02-03T07:58:35.869Z,2.30
2023-02-03T07:59:35.868Z,3.20
2023-02-03T08:00:35.839Z,2.90
2023-02-03T08:01:35.881Z,2.80
2023-02-03T08:02:35.838Z,2.90
2023-02-03T08:03:38.663Z,2.80
2023-02-03T08:04:36.739Z,2.90
2023-02-03T08:05:35.782Z,3.20
2023-02-03T08:06:35.789Z,2.60
2023-02-03T08:07:35.788Z,3.00
2023-02-03T08:08:35.770Z,2.80
2023-02-03T08:09:35.773Z,3.10
2023-02-03T08:10:35.740Z,2.70
2023-02-03T08:11:35.732Z,3.00
2023-02-03T08:12:35.711Z,3.00
2023-02-03T08:13:35.715Z,3.40
2023-02-03T08:14:35.683Z,2.70
2023-02-03T08:15:35.703Z,2.90
2023-02-03T08:16:35.709Z,3.00
2023-02-03T08:17:35.643Z,3.30
2023-02-03T08:18:35.669Z,3.00
2023-02-03T08:19:35.658Z,3.00
2023-02-03T08:20:35.629Z,3.30
2023-02-03T08:21:35.626Z,3.70
2023-02-03T08:22:35.628Z,3.20
2023-02-03T08:23:35.679Z,3.00
2023-02-03T08:24:35.592Z,3.10
2023-02-03T08:25:35.576Z,3.40
2023-02-03T08:26:35.553Z,3.20
2023-02-03T08:27:35.554Z,3.00
2023-02-03T08:28:35.539Z,3.20
2023-02-03T08:29:35.561Z,3.00
2023-02-03T08:30:35.504Z,3.60
2023-02-03T08:31:35.711Z,3.10
2023-02-03T08:32:35.518Z,3.50
2023-02-03T08:33:35.704Z,3.50
2023-02-03T08:34:35.475Z,2.90
2023-02-03T08:35:35.455Z,3.10
2023-02-03T08:36:35.692Z,3.10
2023-02-03T08:37:35.461Z,2.90
2023-02-03T08:38:35.421Z,2.90
2023-02-03T08:39:35.435Z,3.20
2023-02-03T08:40:35.408Z,3.50
2023-02-03T08:41:35.411Z,3.40
2023-02-03T08:42:35.396Z,3.40
2023-02-03T08:43:35.367Z,3.40
2023-02-03T08:44:35.374Z,3.10
2023-02-03T08:45:35.421Z,3.30
2023-02-03T08:46:35.360Z,2.90
2023-02-03T08:47:38.696Z,3.00
2023-02-03T08:48:36.158Z,3.30
2023-02-03T08:49:35.310Z,3.20
2023-02-03T08:50:36.165Z,3.10
2023-02-03T08:51:35.285Z,3.00
2023-02-03T08:52:35.284Z,4.30
2023-02-03T08:53:35.285Z,3.70
2023-02-03T08:54:35.312Z,3.20
2023-02-03T08:55:35.265Z,3.30
2023-02-03T08:56:35.235Z,3.40
2023-02-03T08:57:35.209Z,3.30
2023-02-03T08:58:35.233Z,2.90
2023-02-03T08:59:36.213Z,3.40
2023-02-03T09:00:35.213Z,3.10
2023-02-03T09:01:35.175Z,3.30
2023-02-03T09:02:35.163Z,3.20
2023-02-03T09:03:35.166Z,4.00
2023-02-03T09:04:35.152Z,3.10
2023-02-03T09:05:35.147Z,3.00
2023-02-03T09:06:35.113Z,3.30
2023-02-03T09:07:35.120Z,3.60
2023-02-03T09:08:35.096Z,3.90
2023-02-03T09:09:35.099Z,3.40
2023-02-03T09:10:35.070Z,3.40
2023-02-03T09:11:35.121Z,3.20
2023-02-03T09:12:35.044Z,3.70
2023-02-03T09:13:35.040Z,3.60
2023-02-03T09:14:35.051Z,3.90
2023-02-03T09:15:35.044Z,3.40
2023-02-03T09:16:35.069Z,3.70
2023-02-03T09:17:34.994Z,3.70
2023-02-03T09:18:34.985Z,3.20
2023-02-03T09:19:36.509Z,3.80
2023-02-03T09:20:34.976Z,3.60
2023-02-03T09:21:43.085Z,3.40
2023-02-03T09:22:35.983Z,3.40
2023-02-03T09:23:34.925Z,3.40
2023-02-03T09:24:34.924Z,3.40
2023-02-03T09:25:34.930Z,3.90
2023-02-03T09:26:34.917Z,3.30
2023-02-03T09:27:34.904Z,3.60
2023-02-03T09:28:34.886Z,3.40
2023-02-03T09:29:34.853Z,3.30
2023-02-03T09:30:34.918Z,3.40
2023-02-03T09:31:34.930Z,3.80
2023-02-03T09:32:34.858Z,3.80
2023-02-03T09:33:34.813Z,3.80
2023-02-03T09:34:34.814Z,3.40
2023-02-03T09:35:35.673Z,3.30
2023-02-03T09:36:34.804Z,3.70
2023-02-03T09:37:34.811Z,3.40
2023-02-03T09:38:34.767Z,3.20
2023-02-03T09:39:34.760Z,3.80
2023-02-03T09:40:34.747Z,3.40
2023-02-03T09:41:34.754Z,3.40
2023-02-03T09:42:34.739Z,3.70
2023-02-03T09:43:34.727Z,3.20
2023-02-03T09:44:34.715Z,3.20
2023-02-03T09:45:34.735Z,3.40
2023-02-03T09:46:34.691Z,3.20
2023-02-03T09:47:34.695Z,3.60
2023-02-03T09:48:34.658Z,3.30
2023-02-03T09:49:34.654Z,3.60
2023-02-03T09:50:35.655Z,3.10
2023-02-03T09:51:34.620Z,3.40
2023-02-03T09:52:34.639Z,3.30
2023-02-03T09:53:34.692Z,3.20
2023-02-03T09:54:34.595Z,3.50
2023-02-03T09:55:34.589Z,3.60
2023-02-03T09:56:34.595Z,3.20
2023-02-03T09:57:34.578Z,3.20
2023-02-03T09:58:34.593Z,4.10
2023-02-03T09:59:34.555Z,3.70
2023-02-03T10:00:34.527Z,3.20
2023-02-03T10:01:34.587Z,3.20
2023-02-03T10:02:34.587Z,3.10
2023-02-03T10:03:34.513Z,2.70
2023-02-03T10:04:34.505Z,3.30
2023-02-03T10:05:34.482Z,3.10
2023-02-03T10:06:34.466Z,3.00
2023-02-03T10:07:34.441Z,2.80
2023-02-03T10:08:34.435Z,2.90
2023-02-03T10:09:34.446Z,2.90
2023-02-03T10:10:34.689Z,2.70
2023-02-03T10:11:34.400Z,3.20
2023-02-03T10:12:34.397Z,3.30
2023-02-03T10:13:34.649Z,3.20
2023-02-03T10:14:34.415Z,2.80
2023-02-03T10:15:34.373Z,2.80
2023-02-03T10:16:34.428Z,2.70
2023-02-03T10:17:34.350Z,3.00
2023-02-03T10:18:34.322Z,3.00
2023-02-03T10:19:34.312Z,3.00
2023-02-03T10:20:34.691Z,3.20
2023-02-03T10:21:34.701Z,3.00
2023-02-03T10:22:34.335Z,2.90
2023-02-03T10:23:35.162Z,3.00
2023-02-03T10:24:37.171Z,3.10
2023-02-03T10:25:34.696Z,3.50
2023-02-03T10:26:35.170Z,2.60
2023-02-03T10:27:35.208Z,2.50
2023-02-03T10:28:35.201Z,3.30
2023-02-03T10:29:35.167Z,2.50
2023-02-03T10:30:34.903Z,2.50
2023-02-03T10:31:34.300Z,3.30
2023-02-03T10:32:35.170Z,2.80
2023-02-03T10:33:34.682Z,3.10
2023-02-03T10:34:34.160Z,3.50
2023-02-03T10:35:34.696Z,2.70
2023-02-03T10:36:34.149Z,3.00
2023-02-03T10:37:34.689Z,3.30
2023-02-03T10:38:34.102Z,3.10
2023-02-03T10:39:34.671Z,3.00
2023-02-03T10:40:34.101Z,2.50
2023-02-03T10:41:34.694Z,3.30
2023-02-03T10:42:34.666Z,3.00
2023-02-03T10:43:34.060Z,2.80
2023-02-03T10:44:34.673Z,2.80
2023-02-03T10:45:34.025Z,3.20
2023-02-03T10:46:34.787Z,2.70
2023-02-03T10:47:36.726Z,3.40
2023-02-03T10:48:34.699Z,3.80
2023-02-03T10:49:34.712Z,2.50
2023-02-03T10:50:33.981Z,3.20
2023-02-03T10:51:34.700Z,3.00
2023-02-03T10:52:34.666Z,2.60
2023-02-03T10:53:33.957Z,2.70
2023-02-03T10:54:34.693Z,3.10
2023-02-03T10:55:33.925Z,3.20
2023-02-03T10:56:34.665Z,3.40
2023-02-03T10:57:33.913Z,2.80
2023-02-03T10:58:34.707Z,3.00
2023-02-03T10:59:33.930Z,3.00
2023-02-03T11:00:34.670Z,2.90
2023-02-03T11:01:33.929Z,3.00
2023-02-03T11:02:34.718Z,3.00
2023-02-03T11:03:33.855Z,2.80
2023-02-03T11:04:34.659Z,2.40
2023-02-03T11:05:33.847Z,2.90
2023-02-03T11:06:34.666Z,2.90
2023-02-03T11:07:33.813Z,2.70
2023-02-03T11:08:34.664Z,3.10
2023-02-03T11:09:33.791Z,3.20
2023-02-03T11:10:34.715Z,2.90
2023-02-03T11:11:33.757Z,2.90
2023-02-03T11:12:34.714Z,2.90
2023-02-03T11:13:34.672Z,2.90
2023-02-03T11:14:33.711Z,3.40
2023-02-03T11:15:34.711Z,3.00
2023-02-03T11:16:33.678Z,3.00
2023-02-03T11:17:34.681Z,3.10
2023-02-03T11:18:33.692Z,3.50
2023-02-03T11:19:36.187Z,3.70
2023-02-03T11:20:36.164Z,2.90
2023-02-03T11:21:33.691Z,3.30
2023-02-03T11:22:36.165Z,3.20
2023-02-03T11:23:36.181Z,3.10
2023-02-03T11:24:35.184Z,3.00
2023-02-03T11:25:33.606Z,3.10
2023-02-03T11:26:35.211Z,3.20
2023-02-03T11:27:34.165Z,3.20
2023-02-03T11:28:40.192Z,3.00
2023-02-03T11:29:34.172Z,3.40
2023-02-03T11:30:36.188Z,3.20
2023-02-03T11:31:33.705Z,3.60
2023-02-03T11:32:35.216Z,3.30
2023-02-03T11:33:36.203Z,4.00
2023-02-03T11:34:36.184Z,2.90
2023-02-03T11:35:36.196Z,2.90
2023-02-03T11:36:36.174Z,2.90
2023-02-03T11:37:35.236Z,2.80
2023-02-03T11:38:33.454Z,3.50
2023-02-03T11:39:36.183Z,3.20
2023-02-03T11:40:33.419Z,2.40
2023-02-03T11:41:36.179Z,2.90
2023-02-03T11:42:33.428Z,3.20
2023-02-03T11:43:36.182Z,3.10
2023-02-03T11:44:33.385Z,2.50
2023-02-03T11:45:36.175Z,2.80
2023-02-03T11:46:33.378Z,2.90
2023-02-03T11:47:36.194Z,2.80
2023-02-03T11:48:34.214Z,3.30
2023-02-03T11:49:36.164Z,3.70
2023-02-03T11:50:33.316Z,3.30
2023-02-03T11:51:54.369Z,3.20
2023-02-03T11:52:33.305Z,2.80
2023-02-03T11:53:42.330Z,3.40
2023-02-03T11:54:34.707Z,3.40
2023-02-03T11:55:33.282Z,3.60
2023-02-03T11:56:54.245Z,2.90
2023-02-03T11:57:33.243Z,4.00
2023-02-03T11:58:36.179Z,3.50
2023-02-03T11:59:34.174Z,3.10
2023-02-03T12:00:34.542Z,3.00
2023-02-03T12:01:34.177Z,3.40
2023-02-03T12:02:33.225Z,4.20
2023-02-03T12:03:33.189Z,3.90
2023-02-03T12:04:33.215Z,3.80
2023-02-03T12:05:33.183Z,4.00
2023-02-03T12:06:35.678Z,3.90
2023-02-03T12:07:33.152Z,4.40
2023-02-03T12:08:43.696Z,5.00
2023-02-03T12:09:33.123Z,4.30
2023-02-03T12:10:35.665Z,4.50
2023-02-03T12:11:35.686Z,4.00
2023-02-03T12:12:33.112Z,4.50
2023-02-03T12:13:33.201Z,4.50
2023-02-03T12:14:35.671Z,5.30
2023-02-03T12:15:33.059Z,4.10
2023-02-03T12:16:33.093Z,4.60
2023-02-03T12:17:33.029Z,4.60
2023-02-03T12:18:33.050Z,3.80
2023-02-03T12:19:33.000Z,3.60
2023-02-03T12:20:32.993Z,3.80
2023-02-03T12:21:32.990Z,3.50
2023-02-03T12:22:34.641Z,3.50
2023-02-03T12:23:33.010Z,4.00
2023-02-03T12:24:32.950Z,3.30
2023-02-03T12:25:32.930Z,3.70
2023-02-03T12:26:32.932Z,3.00
2023-02-03T12:27:32.913Z,3.20
2023-02-03T12:28:34.300Z,3.20
2023-02-03T12:29:32.918Z,3.50
2023-02-03T12:30:32.999Z,3.80
2023-02-03T12:31:32.914Z,2.80
2023-02-03T12:32:32.881Z,3.80
2023-02-03T12:33:32.859Z,3.60
2023-02-03T12:34:32.843Z,3.60
2023-02-03T12:35:32.833Z,3.30
2023-02-03T12:36:32.849Z,4.00
2023-02-03T12:37:32.805Z,3.10
2023-02-03T12:38:35.689Z,3.60
2023-02-03T12:39:33.684Z,3.00
2023-02-03T12:40:35.673Z,3.40
2023-02-03T12:41:38.238Z,3.20
2023-02-03T12:42:32.759Z,4.00
2023-02-03T12:43:35.677Z,3.10
2023-02-03T12:44:32.751Z,4.20
2023-02-03T12:45:32.758Z,3.20
2023-02-03T12:46:32.696Z,3.40
2023-02-03T12:47:32.701Z,2.70
2023-02-03T12:48:32.682Z,3.00
2023-02-03T12:49:32.693Z,3.10
2023-02-03T12:50:32.683Z,2.90
2023-02-03T12:51:32.650Z,3.10
2023-02-03T12:52:32.651Z,2.80
2023-02-03T12:53:32.635Z,3.30
2023-02-03T12:54:32.640Z,3.00
2023-02-03T12:55:32.620Z,2.80
2023-02-03T12:56:32.700Z,2.90
2023-02-03T12:57:32.596Z,2.90
2023-02-03T12:58:34.544Z,3.00
2023-02-03T12:59:32.593Z,3.30
2023-02-03T13:00:32.561Z,3.20
2023-02-03T13:01:32.569Z,2.80
2023-02-03T13:02:32.640Z,3.40
2023-02-03T13:03:32.531Z,3.00
2023-02-03T13:04:33.171Z,2.90
2023-02-03T13:05:32.499Z,4.10
2023-02-03T13:06:32.475Z,3.10
2023-02-03T13:07:32.509Z,3.30
2023-02-03T13:08:32.503Z,2.80
2023-02-03T13:09:32.484Z,3.90
2023-02-03T13:10:32.456Z,3.10
2023-02-03T13:11:35.182Z,3.30
2023-02-03T13:12:32.440Z,3.20
2023-02-03T13:13:32.408Z,3.30